Ave Maria, Florida
Current Conditions -  °F | °C
As of 11:55 AM on Thursday 23 Oct 2014 (Local Time) from KIMM Reporting Station
Broken Clouds Broken Clouds  
Wind Chill: 82°   Ceiling: 2400
Heat Index: 89°   Visibility: 7mi
Dew Point: 75°   Wind: 17mph
Humidity: 79%   Direction: 70°ENE
Pressure: 29.96"   Gusts: 24mph
Location:  26.4288°N, 81.4387°W
Report Text: KIMM 231555Z AUTO 07015G21KT 7SM BKN024 BKN030 28/24 A2996 RMK A01 P000
Loading
Personal Weather Stations






























Interactive Weather Map
Tropical Storm Tracking
New forecast layout! Learn more

10-Day Weather Forecast

Advertisements
Track Severe Weather on mobile